createdAt,value
2023-04-08T00:00:02.936Z,3.8
2023-04-08T00:01:01.926Z,3.9
2023-04-08T00:02:01.731Z,3.8
2023-04-08T00:03:01.803Z,3.8
2023-04-08T00:04:01.881Z,3.8
2023-04-08T00:05:02.314Z,3.8
2023-04-08T00:06:02.319Z,3.8
2023-04-08T00:07:02.226Z,3.8
2023-04-08T00:08:02.274Z,3.8
2023-04-08T00:09:02.133Z,3.8
2023-04-08T00:10:02.189Z,3.7
2023-04-08T00:11:02.063Z,3.8
2023-04-08T00:12:02.088Z,3.8
2023-04-08T00:13:01.955Z,3.8
2023-04-08T00:14:01.940Z,3.8
2023-04-08T00:15:01.999Z,3.8
2023-04-08T00:16:01.888Z,3.8
2023-04-08T00:17:01.652Z,3.8
2023-04-08T00:18:01.680Z,3.8
2023-04-08T00:19:01.464Z,3.8
2023-04-08T00:20:01.499Z,3.8
2023-04-08T00:21:01.330Z,3.9
2023-04-08T00:22:02.319Z,3.8
2023-04-08T00:23:02.202Z,3.8
2023-04-08T00:24:02.263Z,3.7
2023-04-08T00:25:02.108Z,3.7
2023-04-08T00:26:02.112Z,3.8
2023-04-08T00:27:02.010Z,3.8
2023-04-08T00:28:02.086Z,3.8
2023-04-08T00:29:01.940Z,3.8
2023-04-08T00:30:01.913Z,3.8
2023-04-08T00:31:01.862Z,3.8
2023-04-08T00:32:01.999Z,3.9
2023-04-08T00:33:01.984Z,3.9
2023-04-08T00:34:01.998Z,3.8
2023-04-08T00:35:01.837Z,3.9
2023-04-08T00:36:01.849Z,3.9
2023-04-08T00:37:01.894Z,3.7
2023-04-08T00:38:01.757Z,3.8
2023-04-08T00:39:01.824Z,3.8
2023-04-08T00:40:01.645Z,3.8
2023-04-08T00:41:01.707Z,3.9
2023-04-08T00:42:01.538Z,3.8
2023-04-08T00:43:01.542Z,3.7
2023-04-08T00:44:01.352Z,3.7
2023-04-08T00:45:01.382Z,3.8
2023-04-08T00:46:02.363Z,3.8
2023-04-08T00:47:01.375Z,3.9
2023-04-08T00:48:01.412Z,3.8
2023-04-08T00:49:02.353Z,3.9
2023-04-08T00:50:02.211Z,3.8
2023-04-08T00:51:02.268Z,3.9
2023-04-08T00:52:02.133Z,3.9
2023-04-08T00:53:02.205Z,3.9
2023-04-08T00:54:02.069Z,3.9
2023-04-08T00:55:02.199Z,3.9
2023-04-08T00:56:02.112Z,3.9
2023-04-08T00:57:02.055Z,3.9
2023-04-08T00:58:01.982Z,3.9
2023-04-08T00:59:01.921Z,3.9
2023-04-08T01:00:02.693Z,3.9
2023-04-08T01:01:01.584Z,3.9
2023-04-08T01:02:01.836Z,3.9
2023-04-08T01:03:01.934Z,3.9
2023-04-08T01:04:01.953Z,3.8
2023-04-08T01:05:01.994Z,3.8
2023-04-08T01:06:02.056Z,3.8
2023-04-08T01:07:02.018Z,3.7
2023-04-08T01:08:01.941Z,3.6
2023-04-08T01:09:01.994Z,3.7
2023-04-08T01:10:01.838Z,3.8
2023-04-08T01:11:01.809Z,3.6
2023-04-08T01:12:01.845Z,3.8
2023-04-08T01:13:01.703Z,3.8
2023-04-08T01:14:01.753Z,3.8
2023-04-08T01:15:01.716Z,3.8
2023-04-08T01:16:01.541Z,3.7
2023-04-08T01:17:01.536Z,3.8
2023-04-08T01:18:01.606Z,3.8
2023-04-08T01:19:01.460Z,3.9
2023-04-08T01:20:01.530Z,3.8
2023-04-08T01:21:01.346Z,3.7
2023-04-08T01:22:01.374Z,3.7
2023-04-08T01:23:02.345Z,3.6
2023-04-08T01:24:02.225Z,3.7
2023-04-08T01:25:02.252Z,3.7
2023-04-08T01:26:02.094Z,3.7
2023-04-08T01:27:02.154Z,3.7
2023-04-08T01:28:02.010Z,3.7
2023-04-08T01:29:02.124Z,3.7
2023-04-08T01:30:02.012Z,3.7
2023-04-08T01:31:02.025Z,3.6
2023-04-08T01:32:02.163Z,3.6
2023-04-08T01:33:02.272Z,3.5
2023-04-08T01:34:02.105Z,3.5
2023-04-08T01:35:02.131Z,3.5
2023-04-08T01:36:02.035Z,3.6
2023-04-08T01:37:02.078Z,3.6
2023-04-08T01:38:01.961Z,3.6
2023-04-08T01:39:01.918Z,3.5
2023-04-08T01:40:01.994Z,3.6
2023-04-08T01:41:01.837Z,3.5
2023-04-08T01:42:01.886Z,3.6
2023-04-08T01:43:01.820Z,3.5
2023-04-08T01:44:01.652Z,3.4
2023-04-08T01:45:01.689Z,3.4
2023-04-08T01:46:01.624Z,3.4
2023-04-08T01:47:01.394Z,3.3
2023-04-08T01:48:01.439Z,3.5
2023-04-08T01:49:01.341Z,3.4
2023-04-08T01:50:02.394Z,3.3
2023-04-08T01:51:02.279Z,3.4
2023-04-08T01:52:02.286Z,3.4
2023-04-08T01:53:02.218Z,3.5
2023-04-08T01:54:02.232Z,3.3
2023-04-08T01:55:02.139Z,3.2
2023-04-08T01:56:02.196Z,3.4
2023-04-08T01:57:02.077Z,3.4
2023-04-08T01:58:01.997Z,3.4
2023-04-08T01:59:01.981Z,3.3
2023-04-08T02:00:02.035Z,3.2
2023-04-08T02:01:02.046Z,3.4
2023-04-08T02:02:01.795Z,3.3
2023-04-08T02:03:01.889Z,3.3
2023-04-08T02:04:01.423Z,3.2
2023-04-08T02:05:01.353Z,3.2
2023-04-08T02:06:01.419Z,3.2
2023-04-08T02:07:02.371Z,3.2
2023-04-08T02:08:02.262Z,3.2
2023-04-08T02:09:02.274Z,3.3
2023-04-08T02:10:02.158Z,3.3
2023-04-08T02:11:02.219Z,3.3
2023-04-08T02:12:02.095Z,3.3
2023-04-08T02:13:02.173Z,3.3
2023-04-08T02:14:02.056Z,3.3
2023-04-08T02:15:02.108Z,3.2
2023-04-08T02:16:02.024Z,3.3
2023-04-08T02:17:02.188Z,3.2
2023-04-08T02:18:02.203Z,3.2
2023-04-08T02:19:02.074Z,3.2
2023-04-08T02:20:02.178Z,3.1
2023-04-08T02:21:02.095Z,3.1
2023-04-08T02:22:02.112Z,3.2
2023-04-08T02:23:01.958Z,3.1
2023-04-08T02:24:03.747Z,3
2023-04-08T02:25:01.646Z,2.9
2023-04-08T02:26:01.608Z,2.9
2023-04-08T02:27:01.462Z,2.9
2023-04-08T02:28:01.457Z,2.9
2023-04-08T02:29:01.340Z,3
2023-04-08T02:30:01.357Z,3.1
2023-04-08T02:31:02.361Z,2.9
2023-04-08T02:32:02.252Z,3
2023-04-08T02:33:02.304Z,3
2023-04-08T02:34:02.139Z,3
2023-04-08T02:35:02.190Z,3
2023-04-08T02:36:02.090Z,3
2023-04-08T02:37:02.092Z,3
2023-04-08T02:38:01.954Z,2.9
2023-04-08T02:39:01.914Z,3
2023-04-08T02:40:01.952Z,3
2023-04-08T02:41:01.900Z,2.8
2023-04-08T02:42:01.735Z,2.9
2023-04-08T02:43:01.794Z,2.8
2023-04-08T02:44:01.595Z,3
2023-04-08T02:45:01.609Z,3
2023-04-08T02:46:01.482Z,3
2023-04-08T02:47:01.669Z,3
2023-04-08T02:48:01.715Z,3
2023-04-08T02:49:01.573Z,2.9
2023-04-08T02:50:01.644Z,2.9
2023-04-08T02:51:01.467Z,2.9
2023-04-08T02:52:01.495Z,3
2023-04-08T02:53:01.315Z,3
2023-04-08T02:54:02.392Z,3
2023-04-08T02:55:02.281Z,3
2023-04-08T02:56:02.297Z,3
2023-04-08T02:57:02.182Z,3
2023-04-08T02:58:02.238Z,3
2023-04-08T02:59:02.199Z,2.9
2023-04-08T03:00:02.212Z,3
2023-04-08T03:01:02.045Z,2.9
2023-04-08T03:02:02.207Z,2.9
2023-04-08T03:03:02.337Z,2.9
2023-04-08T03:04:01.497Z,2.8
2023-04-08T03:05:01.436Z,2.9
2023-04-08T03:06:01.333Z,2.9
2023-04-08T03:07:02.381Z,2.8
2023-04-08T03:08:02.258Z,2.8
2023-04-08T03:09:02.305Z,2.8
2023-04-08T03:10:02.146Z,2.8
2023-04-08T03:11:02.185Z,2.8
2023-04-08T03:12:02.054Z,2.8
2023-04-08T03:13:02.085Z,2.8
2023-04-08T03:14:01.983Z,2.8
2023-04-08T03:15:01.953Z,2.8
2023-04-08T03:16:01.940Z,2.7
2023-04-08T03:17:01.914Z,2.8
2023-04-08T03:18:02.052Z,2.8
2023-04-08T03:19:02.053Z,2.8
2023-04-08T03:20:01.898Z,2.8
2023-04-08T03:21:01.853Z,2.9
2023-04-08T03:22:01.920Z,2.8
2023-04-08T03:23:01.783Z,2.8
2023-04-08T03:24:01.844Z,2.9
2023-04-08T03:25:01.729Z,2.8
2023-04-08T03:26:01.646Z,2.8
2023-04-08T03:27:01.613Z,2.9
2023-04-08T03:28:01.462Z,2.7
2023-04-08T03:29:01.581Z,2.7
2023-04-08T03:30:01.949Z,2.7
2023-04-08T03:31:01.808Z,2.7
2023-04-08T03:32:01.506Z,2.8
2023-04-08T03:33:01.519Z,2.7
2023-04-08T03:34:01.324Z,2.8
2023-04-08T03:35:02.345Z,2.8
2023-04-08T03:36:02.279Z,2.7
2023-04-08T03:37:02.334Z,2.7
2023-04-08T03:38:02.180Z,2.7
2023-04-08T03:39:02.233Z,2.8
2023-04-08T03:40:02.076Z,2.8
2023-04-08T03:41:02.127Z,2.8
2023-04-08T03:42:01.971Z,2.8
2023-04-08T03:43:01.968Z,2.7
2023-04-08T03:44:01.926Z,2.6
2023-04-08T03:45:01.785Z,2.7
2023-04-08T03:46:01.794Z,2.7
2023-04-08T03:47:01.776Z,2.7
2023-04-08T03:48:01.910Z,2.6
2023-04-08T03:49:01.728Z,2.7
2023-04-08T03:50:01.749Z,2.7
2023-04-08T03:51:01.562Z,2.7
2023-04-08T03:52:01.570Z,2.7
2023-04-08T03:53:01.476Z,2.7
2023-04-08T03:54:01.503Z,2.7
2023-04-08T03:55:01.386Z,2.7
2023-04-08T03:56:01.415Z,2.6
2023-04-08T03:57:02.360Z,2.6
2023-04-08T03:58:02.271Z,2.7
2023-04-08T03:59:02.361Z,2.6
2023-04-08T04:00:02.920Z,2.5
2023-04-08T04:01:01.871Z,2.7
2023-04-08T04:02:02.099Z,2.6
2023-04-08T04:03:02.278Z,2.6
2023-04-08T04:04:02.462Z,2.7
2023-04-08T04:05:02.060Z,2.7
2023-04-08T04:06:01.993Z,2.6
2023-04-08T04:07:01.890Z,2.6
2023-04-08T04:08:01.951Z,2.5
2023-04-08T04:09:01.805Z,2.5
2023-04-08T04:10:01.710Z,2.5
2023-04-08T04:11:01.729Z,2.6
2023-04-08T04:12:01.607Z,2.6
2023-04-08T04:13:01.636Z,2.6
2023-04-08T04:14:01.503Z,2.5
2023-04-08T04:15:01.530Z,2.5
2023-04-08T04:16:01.448Z,2.5
2023-04-08T04:17:01.460Z,2.5
2023-04-08T04:18:01.483Z,2.5
2023-04-08T04:19:01.338Z,2.5
2023-04-08T04:20:02.347Z,2.6
2023-04-08T04:21:02.229Z,2.6
2023-04-08T04:22:02.273Z,2.5
2023-04-08T04:23:02.168Z,2.4
2023-04-08T04:24:02.257Z,2.4
2023-04-08T04:25:02.155Z,2.5
2023-04-08T04:26:02.164Z,2.5
2023-04-08T04:27:02.129Z,2.6
2023-04-08T04:28:02.093Z,2.5
2023-04-08T04:29:01.952Z,2.6
2023-04-08T04:30:01.885Z,2.6
2023-04-08T04:31:02.073Z,2.6
2023-04-08T04:32:01.692Z,2.6
2023-04-08T04:33:01.810Z,2.6
2023-04-08T04:34:01.674Z,2.7
2023-04-08T04:35:01.680Z,2.7
2023-04-08T04:36:01.654Z,2.5
2023-04-08T04:37:01.876Z,2.6
2023-04-08T04:38:01.944Z,2.7
2023-04-08T04:39:01.746Z,2.6
2023-04-08T04:40:01.817Z,2.5
2023-04-08T04:41:01.716Z,2.6
2023-04-08T04:42:01.713Z,2.7
2023-04-08T04:43:01.585Z,2.7
2023-04-08T04:44:01.812Z,2.8
2023-04-08T04:45:01.788Z,2.8
2023-04-08T04:46:01.647Z,2.9
2023-04-08T04:47:01.751Z,2.9
2023-04-08T04:48:01.518Z,2.8
2023-04-08T04:49:01.326Z,2.9
2023-04-08T04:50:01.351Z,2.8
2023-04-08T04:51:02.314Z,2.8
2023-04-08T04:52:02.168Z,2.8
2023-04-08T04:53:02.214Z,2.8
2023-04-08T04:54:02.062Z,2.8
2023-04-08T04:55:02.139Z,2.8
2023-04-08T04:56:02.305Z,2.8
2023-04-08T04:57:02.174Z,2.8
2023-04-08T04:58:02.222Z,2.8
2023-04-08T04:59:02.082Z,2.8
2023-04-08T05:00:04.778Z,2.8
2023-04-08T05:01:01.426Z,2.8
2023-04-08T05:02:01.836Z,2.8
2023-04-08T05:03:01.949Z,2.8
2023-04-08T05:04:01.903Z,2.8
2023-04-08T05:05:01.938Z,2.8
2023-04-08T05:06:01.875Z,2.8
2023-04-08T05:07:01.730Z,2.9
2023-04-08T05:08:01.793Z,3
2023-04-08T05:09:01.599Z,3
2023-04-08T05:10:01.743Z,3
2023-04-08T05:11:01.564Z,3
2023-04-08T05:12:01.523Z,3
2023-04-08T05:13:01.350Z,3
2023-04-08T05:14:01.451Z,3.1
2023-04-08T05:15:02.385Z,3.1
2023-04-08T05:16:02.280Z,3
2023-04-08T05:17:02.220Z,3.1
2023-04-08T05:18:02.273Z,3.1
2023-04-08T05:19:02.130Z,3
2023-04-08T05:20:02.199Z,3.1
2023-04-08T05:21:02.032Z,3.1
2023-04-08T05:22:02.031Z,3.2
2023-04-08T05:23:01.932Z,3.2
2023-04-08T05:24:01.882Z,3.2
2023-04-08T05:25:01.921Z,3.1
2023-04-08T05:26:01.729Z,3.2
2023-04-08T05:27:01.768Z,3.2
2023-04-08T05:28:01.700Z,3.2
2023-04-08T05:29:01.681Z,3.2
2023-04-08T05:30:01.516Z,3.3
2023-04-08T05:31:01.523Z,3.2
2023-04-08T05:32:01.300Z,3.2
2023-04-08T05:33:02.411Z,3.2
2023-04-08T05:34:02.255Z,3.4
2023-04-08T05:35:02.316Z,3.3
2023-04-08T05:36:02.156Z,3.3
2023-04-08T05:37:02.173Z,3.5
2023-04-08T05:38:02.050Z,3.7
2023-04-08T05:39:03.357Z,3.6
2023-04-08T05:40:02.153Z,3.7
2023-04-08T05:41:02.071Z,3.8
2023-04-08T05:42:02.101Z,3.8
2023-04-08T05:43:01.977Z,3.6
2023-04-08T05:44:01.933Z,3.7
2023-04-08T05:45:02.003Z,3.7
2023-04-08T05:46:01.805Z,3.6
2023-04-08T05:47:01.579Z,3.6
2023-04-08T05:48:01.579Z,3.7
2023-04-08T05:49:01.344Z,3.8
2023-04-08T05:50:01.338Z,3.8
2023-04-08T05:51:02.316Z,4
2023-04-08T05:52:02.158Z,4.1
2023-04-08T05:53:02.194Z,4.1
2023-04-08T05:54:02.039Z,4.2
2023-04-08T05:55:02.097Z,4.1
2023-04-08T05:56:02.105Z,4.1
2023-04-08T05:57:01.910Z,3.9
2023-04-08T05:58:01.960Z,4
2023-04-08T05:59:01.822Z,4.1
2023-04-08T06:00:02.584Z,4.2
2023-04-08T06:01:01.634Z,4.2
2023-04-08T06:02:01.545Z,4.3
2023-04-08T06:03:01.680Z,4.4
2023-04-08T06:04:02.459Z,4.4
2023-04-08T06:05:01.901Z,4.3
2023-04-08T06:06:01.889Z,4.5
2023-04-08T06:07:01.759Z,4.4
2023-04-08T06:08:01.795Z,4.5
2023-04-08T06:09:01.631Z,4.5
2023-04-08T06:10:01.647Z,4.5
2023-04-08T06:11:01.487Z,4.6
2023-04-08T06:12:01.501Z,4.6
2023-04-08T06:13:01.345Z,4.5
2023-04-08T06:14:01.419Z,4.7
2023-04-08T06:15:02.343Z,4.6
2023-04-08T06:16:02.217Z,4.8
2023-04-08T06:17:02.292Z,4.5
2023-04-08T06:18:02.310Z,4.5
2023-04-08T06:19:02.109Z,4.5
2023-04-08T06:20:02.180Z,4.7
2023-04-08T06:21:01.997Z,4.6
2023-04-08T06:22:02.041Z,4.6
2023-04-08T06:23:01.982Z,4.6
2023-04-08T06:24:01.774Z,4.5
2023-04-08T06:25:01.785Z,4.6
2023-04-08T06:26:01.687Z,4.8
2023-04-08T06:27:01.750Z,4.7
2023-04-08T06:28:01.603Z,4.7
2023-04-08T06:29:01.592Z,4.6
2023-04-08T06:30:01.458Z,4.7
2023-04-08T06:31:01.508Z,4.7
2023-04-08T06:32:02.240Z,4.8
2023-04-08T06:33:02.093Z,5
2023-04-08T06:34:02.126Z,5.1
2023-04-08T06:35:01.985Z,5.1
2023-04-08T06:36:01.922Z,5.1
2023-04-08T06:37:01.969Z,5.1
2023-04-08T06:38:01.816Z,5
2023-04-08T06:39:01.779Z,5.1
2023-04-08T06:40:01.811Z,5.3
2023-04-08T06:41:01.627Z,5
2023-04-08T06:42:01.841Z,5.1
2023-04-08T06:43:01.598Z,4.9
2023-04-08T06:44:01.627Z,5
2023-04-08T06:45:01.483Z,4.9
2023-04-08T06:46:01.561Z,4.9
2023-04-08T06:47:01.290Z,5
2023-04-08T06:48:02.380Z,5
2023-04-08T06:49:02.198Z,5
2023-04-08T06:50:02.258Z,4.9
2023-04-08T06:51:02.150Z,4.9
2023-04-08T06:52:02.182Z,5.3
2023-04-08T06:53:02.007Z,5.3
2023-04-08T06:54:02.055Z,5.3
2023-04-08T06:55:01.879Z,5.6
2023-04-08T06:56:01.859Z,5.3
2023-04-08T06:57:01.894Z,5.3
2023-04-08T06:58:01.707Z,5.7
2023-04-08T06:59:01.720Z,5.9
2023-04-08T07:00:03.020Z,6
2023-04-08T07:01:01.851Z,6.1
2023-04-08T07:02:01.611Z,6.1
2023-04-08T07:03:01.699Z,6.2
2023-04-08T07:04:01.904Z,6
2023-04-08T07:05:02.240Z,6
2023-04-08T07:06:02.252Z,6.3
2023-04-08T07:07:02.135Z,6.4
2023-04-08T07:08:02.119Z,6
2023-04-08T07:09:02.009Z,6.1
2023-04-08T07:10:02.064Z,6.2
2023-04-08T07:11:01.862Z,6.4
2023-04-08T07:12:01.820Z,6.5
2023-04-08T07:13:01.879Z,6.5
2023-04-08T07:14:01.766Z,6.2
2023-04-08T07:15:01.671Z,6
2023-04-08T07:16:01.662Z,6.3
2023-04-08T07:17:01.499Z,6.4
2023-04-08T07:18:01.764Z,6.5
2023-04-08T07:19:01.555Z,6.4
2023-04-08T07:20:01.616Z,6.7
2023-04-08T07:21:01.440Z,6.6
2023-04-08T07:22:01.451Z,6.7
2023-04-08T07:23:01.322Z,6.6
2023-04-08T07:24:02.356Z,6.7
2023-04-08T07:25:02.243Z,6.9
2023-04-08T07:26:02.273Z,6.5
2023-04-08T07:27:02.117Z,6.5
2023-04-08T07:28:02.161Z,6.6
2023-04-08T07:29:02.047Z,6.8
2023-04-08T07:30:02.085Z,6.7
2023-04-08T07:31:01.982Z,6.9
2023-04-08T07:32:01.983Z,7.1
2023-04-08T07:33:02.074Z,7.5
2023-04-08T07:34:01.863Z,7.6
2023-04-08T07:35:01.754Z,7.4
2023-04-08T07:36:01.786Z,7.7
2023-04-08T07:37:01.584Z,7.7
2023-04-08T07:38:01.671Z,7.8
2023-04-08T07:39:01.495Z,7.6
2023-04-08T07:40:01.477Z,7.6
2023-04-08T07:41:01.363Z,7.3
2023-04-08T07:42:01.432Z,7.2
2023-04-08T07:43:02.368Z,7.2
2023-04-08T07:44:02.236Z,7
2023-04-08T07:45:02.291Z,7
2023-04-08T07:46:02.195Z,7.8
2023-04-08T07:47:02.227Z,7.7
2023-04-08T07:48:02.283Z,7.7
2023-04-08T07:49:02.069Z,7.5
2023-04-08T07:50:02.078Z,7.4
2023-04-08T07:51:09.525Z,7.7
2023-04-08T07:52:02.193Z,7.9
2023-04-08T07:53:02.295Z,8
2023-04-08T07:54:02.077Z,8
2023-04-08T07:55:02.116Z,7.6
2023-04-08T07:56:02.250Z,7.5
2023-04-08T07:57:01.467Z,7.7
2023-04-08T07:58:01.525Z,7.6
2023-04-08T07:59:01.412Z,7.9
2023-04-08T08:00:01.379Z,8
2023-04-08T08:01:01.301Z,8.3
2023-04-08T08:02:02.183Z,8.7
2023-04-08T08:03:02.245Z,8.7
2023-04-08T08:04:02.354Z,8.8
2023-04-08T08:05:01.735Z,8.6
2023-04-08T08:06:01.597Z,8.7
2023-04-08T08:07:01.664Z,8.6
2023-04-08T08:08:01.483Z,8.6
2023-04-08T08:09:01.480Z,8.2
2023-04-08T08:10:01.351Z,8.4
2023-04-08T08:11:01.354Z,8.7
2023-04-08T08:12:02.328Z,8.9
2023-04-08T08:13:02.253Z,8.8
2023-04-08T08:14:02.269Z,8.8
2023-04-08T08:15:02.198Z,9
2023-04-08T08:16:02.260Z,9
2023-04-08T08:17:02.159Z,9.3
2023-04-08T08:18:02.243Z,9.3
2023-04-08T08:19:02.081Z,9.3
2023-04-08T08:20:02.143Z,9.2
2023-04-08T08:21:02.114Z,9.5
2023-04-08T08:22:02.004Z,9.6
2023-04-08T08:23:01.913Z,9.6
2023-04-08T08:24:01.859Z,9.4
2023-04-08T08:25:01.847Z,9.7
2023-04-08T08:26:01.717Z,9.9
2023-04-08T08:27:01.763Z,9.6
2023-04-08T08:28:01.569Z,10
2023-04-08T08:29:01.618Z,10.2
2023-04-08T08:30:01.440Z,9.9
2023-04-08T08:31:01.487Z,9.8
2023-04-08T08:32:01.390Z,9.7
2023-04-08T08:33:01.435Z,9.8
2023-04-08T08:34:01.300Z,9.2
2023-04-08T08:35:02.346Z,9
2023-04-08T08:36:02.280Z,9.1
2023-04-08T08:37:02.220Z,9.8
2023-04-08T08:38:02.141Z,9.9
2023-04-08T08:39:02.166Z,9.6
2023-04-08T08:40:02.062Z,9.3
2023-04-08T08:41:02.120Z,8.8
2023-04-08T08:42:01.969Z,9
2023-04-08T08:43:01.930Z,9.3
2023-04-08T08:44:01.989Z,9.2
2023-04-08T08:45:01.869Z,9.6
2023-04-08T08:46:01.849Z,10.1
2023-04-08T08:47:02.018Z,10.2
2023-04-08T08:48:02.090Z,9.9
2023-04-08T08:49:01.921Z,9.6
2023-04-08T08:50:01.880Z,10.1
2023-04-08T08:51:01.878Z,9.9
2023-04-08T08:52:01.782Z,10.2
2023-04-08T08:53:01.732Z,10.2
2023-04-08T08:54:01.787Z,10.3
2023-04-08T08:55:01.702Z,10.3
2023-04-08T08:56:16.964Z,10.5
2023-04-08T08:57:01.726Z,10.2
2023-04-08T08:58:01.709Z,10.2
2023-04-08T08:59:01.592Z,10.6
2023-04-08T09:00:02.063Z,10.6
2023-04-08T09:01:01.795Z,10.5
2023-04-08T09:02:02.321Z,11.1
2023-04-08T09:03:02.483Z,11.1
2023-04-08T09:04:01.973Z,11.2
2023-04-08T09:05:02.260Z,10
2023-04-08T09:06:01.510Z,10.5
2023-04-08T09:07:01.491Z,10.3
2023-04-08T09:08:01.342Z,10.7
2023-04-08T09:09:01.388Z,10.7
2023-04-08T09:10:01.247Z,10.2
2023-04-08T09:11:02.363Z,10.1
2023-04-08T09:12:02.191Z,10
2023-04-08T09:13:02.244Z,9.7
2023-04-08T09:14:02.070Z,10.4
2023-04-08T09:15:02.054Z,10.5
2023-04-08T09:16:02.033Z,10.4
2023-04-08T09:17:01.988Z,10.3
2023-04-08T09:18:02.165Z,9.9
2023-04-08T09:19:02.034Z,10.5
2023-04-08T09:20:01.986Z,10.3
2023-04-08T09:21:02.185Z,10.3
2023-04-08T09:22:01.909Z,11.2
2023-04-08T09:23:01.830Z,11.1
2023-04-08T09:24:01.881Z,11.1
2023-04-08T09:25:01.734Z,11.3
2023-04-08T09:26:01.752Z,11.7
2023-04-08T09:27:01.612Z,11.8
2023-04-08T09:28:01.570Z,12.4
2023-04-08T09:29:08.402Z,12.6
2023-04-08T09:30:01.886Z,12.5
2023-04-08T09:31:01.889Z,12.3
2023-04-08T09:32:01.430Z,12.3
2023-04-08T09:33:01.456Z,12.9
2023-04-08T09:34:01.400Z,12.1
2023-04-08T09:35:01.386Z,12.6
2023-04-08T09:36:01.338Z,12.7
2023-04-08T09:37:02.335Z,12.8
2023-04-08T09:38:02.172Z,12.9
2023-04-08T09:39:02.234Z,12.9
2023-04-08T09:40:02.077Z,12.1
2023-04-08T09:41:02.139Z,12.2
2023-04-08T09:42:02.050Z,12.3
2023-04-08T09:43:01.955Z,12.2
2023-04-08T09:44:02.019Z,13
2023-04-08T09:45:01.899Z,12.7
2023-04-08T09:46:01.844Z,12.4
2023-04-08T09:47:01.898Z,12.9
2023-04-08T09:48:01.969Z,12.9
2023-04-08T09:49:01.825Z,13.3
2023-04-08T09:50:01.745Z,12.9
2023-04-08T09:51:01.742Z,12.9
2023-04-08T09:52:01.648Z,12.2
2023-04-08T09:53:01.712Z,12.7
2023-04-08T09:54:01.522Z,12.3
2023-04-08T09:55:01.555Z,12.5
2023-04-08T09:56:01.362Z,12.9
2023-04-08T09:57:01.411Z,13.2
2023-04-08T09:58:02.339Z,13.2
2023-04-08T09:59:02.201Z,13.1
2023-04-08T10:00:02.276Z,13
2023-04-08T10:01:02.112Z,13.5
2023-04-08T10:02:02.132Z,13.8
2023-04-08T10:03:02.430Z,13.7
2023-04-08T10:04:01.606Z,13.6
2023-04-08T10:05:01.712Z,13.7
2023-04-08T10:06:01.869Z,13.6
2023-04-08T10:07:01.821Z,13.4
2023-04-08T10:08:01.882Z,13.3
2023-04-08T10:09:01.712Z,13.6
2023-04-08T10:10:01.777Z,13.8
2023-04-08T10:11:01.633Z,13
2023-04-08T10:12:01.676Z,13.4
2023-04-08T10:13:01.460Z,13.7
2023-04-08T10:14:01.529Z,13.7
2023-04-08T10:15:01.354Z,14.2
2023-04-08T10:16:01.401Z,14.2
2023-04-08T10:17:01.995Z,13.8
2023-04-08T10:18:02.052Z,13
2023-04-08T10:19:02.043Z,13.1
2023-04-08T10:20:01.889Z,13.1
2023-04-08T10:21:01.781Z,13.1
2023-04-08T10:22:01.788Z,12.9
2023-04-08T10:23:01.697Z,12.5
2023-04-08T10:24:01.713Z,12.1
2023-04-08T10:25:01.572Z,11.8
2023-04-08T10:26:01.606Z,12.4
2023-04-08T10:27:01.408Z,12.3
2023-04-08T10:28:01.408Z,11.8
2023-04-08T10:29:01.320Z,11.9
2023-04-08T10:30:02.365Z,12.2
2023-04-08T10:31:02.214Z,11.7
2023-04-08T10:32:02.056Z,12.1
2023-04-08T10:33:02.111Z,11.6
2023-04-08T10:34:01.925Z,11.8
2023-04-08T10:35:01.881Z,12.2
2023-04-08T10:36:01.961Z,12.4
2023-04-08T10:37:01.745Z,12.6
2023-04-08T10:38:01.757Z,12.4
2023-04-08T10:39:01.674Z,12.5
2023-04-08T10:40:01.663Z,12.6
2023-04-08T10:41:01.477Z,13.3
2023-04-08T10:42:01.472Z,13.3
2023-04-08T10:43:01.350Z,13.4
2023-04-08T10:44:01.402Z,13.7
2023-04-08T10:45:02.312Z,14.2
2023-04-08T10:46:02.199Z,14.6
2023-04-08T10:47:02.255Z,14.6
2023-04-08T10:48:02.254Z,13.4
2023-04-08T10:49:02.168Z,13.7
2023-04-08T10:50:02.208Z,13.8
2023-04-08T10:51:02.073Z,13.6
2023-04-08T10:52:02.123Z,14.5
2023-04-08T10:53:02.024Z,14.7
2023-04-08T10:54:01.917Z,14.9
2023-04-08T10:55:01.905Z,15.3
2023-04-08T10:56:01.807Z,15.5
2023-04-08T10:57:01.780Z,15.4
2023-04-08T10:58:01.868Z,14.9
2023-04-08T10:59:01.668Z,14.2
2023-04-08T11:00:03.126Z,14.4
2023-04-08T11:01:01.968Z,15.1
2023-04-08T11:02:02.001Z,15.1
2023-04-08T11:03:01.683Z,14.9
2023-04-08T11:04:01.923Z,14.4
2023-04-08T11:05:01.968Z,14.4
2023-04-08T11:06:02.020Z,13.6
2023-04-08T11:07:01.865Z,13
2023-04-08T11:08:01.828Z,13.4
2023-04-08T11:09:01.884Z,14.2
2023-04-08T11:10:01.739Z,14.1
2023-04-08T11:11:01.748Z,13.5
2023-04-08T11:12:01.643Z,13.9
2023-04-08T11:13:01.734Z,14.1
2023-04-08T11:14:01.570Z,13.5
2023-04-08T11:15:01.562Z,13
2023-04-08T11:16:01.399Z,13
2023-04-08T11:17:01.851Z,12.8
2023-04-08T11:18:01.944Z,12.5
2023-04-08T11:19:01.752Z,12.8
2023-04-08T11:20:01.778Z,12.6
2023-04-08T11:21:01.632Z,13.2
2023-04-08T11:22:01.714Z,13.5
2023-04-08T11:23:01.531Z,12.7
2023-04-08T11:24:01.526Z,13.3
2023-04-08T11:25:01.381Z,12.6
2023-04-08T11:26:01.401Z,11.9
2023-04-08T11:27:02.325Z,12.6
2023-04-08T11:28:02.156Z,12.5
2023-04-08T11:29:02.220Z,13.4
2023-04-08T11:30:02.082Z,12.5
2023-04-08T11:31:02.171Z,12.1
2023-04-08T11:32:01.363Z,13
2023-04-08T11:33:01.423Z,13
2023-04-08T11:34:02.364Z,13.1
2023-04-08T11:35:02.222Z,12.5
2023-04-08T11:36:02.342Z,12.6
2023-04-08T11:37:02.226Z,12.7
2023-04-08T11:38:02.132Z,13
2023-04-08T11:39:02.035Z,12.4
2023-04-08T11:40:02.048Z,12.4
2023-04-08T11:41:01.888Z,11.8
2023-04-08T11:42:01.865Z,11.7
2023-04-08T11:43:01.909Z,12
2023-04-08T11:44:01.780Z,11.7
2023-04-08T11:45:01.831Z,11.9
2023-04-08T11:46:01.693Z,11.8
2023-04-08T11:47:01.660Z,11.5
2023-04-08T11:48:03.647Z,11.4
2023-04-08T11:49:01.648Z,11.4
2023-04-08T11:50:01.698Z,11.5
2023-04-08T11:51:01.510Z,11.6
2023-04-08T11:52:01.521Z,11.6
2023-04-08T11:53:01.365Z,11.4
2023-04-08T11:54:01.397Z,11.4
2023-04-08T11:55:02.315Z,11.2
2023-04-08T11:56:02.154Z,11.4
2023-04-08T11:57:02.173Z,11.1
2023-04-08T11:58:02.029Z,11.1
2023-04-08T11:59:02.017Z,11.4
2023-04-08T12:00:02.452Z,11.1
2023-04-08T12:01:01.351Z,11
2023-04-08T12:02:01.855Z,10.9
2023-04-08T12:03:01.948Z,11.1
2023-04-08T12:04:01.962Z,11.1
2023-04-08T12:05:01.398Z,11
2023-04-08T12:06:01.344Z,11
2023-04-08T12:07:01.302Z,10.8
2023-04-08T12:08:02.363Z,10.6
2023-04-08T12:09:02.199Z,10.6
2023-04-08T12:10:02.263Z,10.6
2023-04-08T12:11:13.153Z,10.6
2023-04-08T12:12:01.775Z,10.6
2023-04-08T12:13:01.827Z,10.8
2023-04-08T12:14:01.610Z,10.7
2023-04-08T12:15:01.598Z,10.5
2023-04-08T12:16:01.626Z,10.6
2023-04-08T12:17:01.289Z,10.6
2023-04-08T12:18:02.397Z,10.7
2023-04-08T12:19:01.304Z,10.7
2023-04-08T12:20:02.337Z,10.8
2023-04-08T12:21:02.287Z,10.6
2023-04-08T12:22:02.197Z,10.5
2023-04-08T12:23:02.128Z,10.5
2023-04-08T12:24:02.196Z,10.5
2023-04-08T12:25:02.027Z,10.9
2023-04-08T12:26:01.968Z,10.6
2023-04-08T12:27:01.962Z,10.7
2023-04-08T12:28:01.840Z,10.6
2023-04-08T12:29:01.902Z,10.5
2023-04-08T12:30:01.767Z,10.4
2023-04-08T12:31:01.672Z,10.6
2023-04-08T12:32:01.462Z,10.3
2023-04-08T12:33:01.476Z,10.7
2023-04-08T12:34:01.309Z,10.6
2023-04-08T12:35:02.338Z,10.4
2023-04-08T12:36:02.200Z,10.4
2023-04-08T12:37:02.228Z,10.7
2023-04-08T12:38:02.102Z,10.7
2023-04-08T12:39:02.096Z,10.5
2023-04-08T12:40:02.043Z,10.4
2023-04-08T12:41:01.953Z,10.4
2023-04-08T12:42:02.026Z,10.4
2023-04-08T12:43:01.889Z,10.1
2023-04-08T12:44:01.849Z,10.2
2023-04-08T12:45:01.838Z,10.2
2023-04-08T12:46:01.763Z,10.2
2023-04-08T12:47:02.183Z,10.4
2023-04-08T12:48:02.213Z,10.2
2023-04-08T12:49:04.463Z,10.3
2023-04-08T12:50:02.173Z,10.5
2023-04-08T12:51:02.247Z,10.3
2023-04-08T12:52:02.066Z,10.4
2023-04-08T12:53:02.093Z,10.2
2023-04-08T12:54:02.037Z,10.3
2023-04-08T12:55:01.913Z,10.3
2023-04-08T12:56:01.951Z,10.5
2023-04-08T12:57:01.750Z,10.2
2023-04-08T12:58:01.840Z,10.3
2023-04-08T12:59:01.720Z,10.2
2023-04-08T13:00:02.300Z,10.2
2023-04-08T13:01:02.118Z,9.8
2023-04-08T13:02:01.762Z,10.2
2023-04-08T13:03:01.807Z,10
2023-04-08T13:04:01.769Z,10
2023-04-08T13:05:01.926Z,9.8
2023-04-08T13:06:01.963Z,9.9
2023-04-08T13:07:01.827Z,9.9
2023-04-08T13:08:01.781Z,9.9
2023-04-08T13:09:01.810Z,9.6
2023-04-08T13:10:01.658Z,9.5
2023-04-08T13:11:01.740Z,9.8
2023-04-08T13:12:01.521Z,9.6
2023-04-08T13:13:01.563Z,9.7
2023-04-08T13:14:01.373Z,9.7
2023-04-08T13:15:01.361Z,9.5
2023-04-08T13:16:02.337Z,9.4
2023-04-08T13:17:02.204Z,9.8
2023-04-08T13:18:02.293Z,9.8
2023-04-08T13:19:02.091Z,9.7
2023-04-08T13:20:02.135Z,9.8
2023-04-08T13:21:01.979Z,9.7
2023-04-08T13:22:02.035Z,9.8
2023-04-08T13:23:01.934Z,9.8
2023-04-08T13:24:01.820Z,9.8
2023-04-08T13:25:01.722Z,9.7
2023-04-08T13:26:01.729Z,9.6
2023-04-08T13:27:01.614Z,9.5
2023-04-08T13:28:01.660Z,9.5
2023-04-08T13:29:01.698Z,9.3
2023-04-08T13:30:01.774Z,9.3
2023-04-08T13:31:01.770Z,9.3
2023-04-08T13:32:01.651Z,9.5
2023-04-08T13:33:01.642Z,9.5
2023-04-08T13:34:01.695Z,9.3
2023-04-08T13:35:01.695Z,9.2
2023-04-08T13:36:01.600Z,9.3
2023-04-08T13:37:01.597Z,9.3
2023-04-08T13:38:01.458Z,9.3
2023-04-08T13:39:01.494Z,9.1
2023-04-08T13:40:01.283Z,9
2023-04-08T13:41:02.314Z,9.1
2023-04-08T13:42:02.167Z,9.1